createdAt,value
2019-05-25T00:00:05.310Z,96653.64
2019-05-25T00:02:38.113Z,96652.16
2019-05-25T00:05:15.650Z,96646.37
2019-05-25T00:07:47.779Z,96651.48
2019-05-25T00:10:37.100Z,96656.05
2019-05-25T00:13:11.802Z,96654.39
2019-05-25T00:15:47.598Z,96656.57
2019-05-25T00:18:21.149Z,96654.23
2019-05-25T00:20:58.155Z,96651.29
2019-05-25T00:23:33.288Z,96650.58
2019-05-25T00:26:19.440Z,96646.33
2019-05-25T00:28:53.278Z,96640.77
2019-05-25T00:31:25.097Z,96640.37
2019-05-25T00:33:57.005Z,96642.25
2019-05-25T00:36:28.746Z,96646.47
2019-05-25T00:39:00.454Z,96646.77
2019-05-25T00:41:33.461Z,96645.84
2019-05-25T00:44:06.202Z,96646.42
2019-05-25T00:46:39.615Z,96641.77
2019-05-25T00:49:11.451Z,96641.27
2019-05-25T00:51:43.619Z,96649.42
2019-05-25T00:54:27.571Z,96645.67
2019-05-25T00:56:50.002Z,96646.58
2019-05-25T00:59:22.650Z,96643.82
2019-05-25T01:01:54.343Z,96642.63
2019-05-25T01:04:26.244Z,96643.05
2019-05-25T01:06:57.977Z,96643.53
2019-05-25T01:09:32.125Z,96641.71
2019-05-25T01:12:04.094Z,96650.33
2019-05-25T01:14:35.762Z,96654.84
2019-05-25T01:17:09.278Z,96661.81
2019-05-25T01:19:54.105Z,96664.69
2019-05-25T01:22:26.505Z,96665.31
2019-05-25T01:25:06.247Z,96666.81
2019-05-25T01:27:37.966Z,96659.54
2019-05-25T01:30:11.941Z,96661.66
2019-05-25T01:32:45.807Z,96653.52
2019-05-25T01:35:17.915Z,96653.80
2019-05-25T01:37:50.340Z,96652.42
2019-05-25T01:40:22.424Z,96660.73
2019-05-25T01:42:55.817Z,96655.44
2019-05-25T01:45:31.925Z,96657.56
2019-05-25T01:48:07.612Z,96660.28
2019-05-25T01:50:39.567Z,96666.72
2019-05-25T01:53:12.501Z,96662.20
2019-05-25T01:55:44.416Z,96656.95
2019-05-25T01:58:17.674Z,96655.91
2019-05-25T02:00:49.646Z,96660.13
2019-05-25T02:03:21.513Z,96661.10
2019-05-25T02:05:57.407Z,96659.80
2019-05-25T02:08:38.878Z,96655.82
2019-05-25T02:11:10.540Z,96662.81
2019-05-25T02:13:42.499Z,96676.89
2019-05-25T02:16:15.330Z,96678.81
2019-05-25T02:18:47.559Z,96676.77
2019-05-25T02:21:19.232Z,96676.77
2019-05-25T02:23:51.401Z,96680.94
2019-05-25T02:26:38.593Z,96679.98
2019-05-25T02:29:14.176Z,96679.84
2019-05-25T02:31:46.116Z,96689.28
2019-05-25T02:34:17.817Z,96692.84
2019-05-25T02:36:49.718Z,96689.48
2019-05-25T02:39:28.586Z,96700.55
2019-05-25T02:42:00.909Z,96696.17
2019-05-25T02:44:33.198Z,96698.92
2019-05-25T02:47:05.309Z,96702.07
2019-05-25T02:50:06.640Z,96700.20
2019-05-25T02:52:38.760Z,96701.24
2019-05-25T02:55:34.263Z,96698.03
2019-05-25T02:58:22.859Z,96695.58
2019-05-25T03:00:55.582Z,96694.78
2019-05-25T03:03:27.582Z,96696.16
2019-05-25T03:06:01.344Z,96697.38
2019-05-25T03:08:33.589Z,96699.58
2019-05-25T03:11:16.785Z,96704.56
2019-05-25T03:13:50.605Z,96704.07
2019-05-25T03:16:23.265Z,96710.44
2019-05-25T03:18:55.737Z,96713.89
2019-05-25T03:21:28.320Z,96715.87
2019-05-25T03:24:00.868Z,96719.72
2019-05-25T03:26:32.573Z,96721.80
2019-05-25T03:29:04.424Z,96723.56
2019-05-25T03:31:39.985Z,96729.31
2019-05-25T03:34:16.525Z,96728.96
2019-05-25T03:36:55.196Z,96727.73
2019-05-25T03:39:28.547Z,96729.77
2019-05-25T03:42:00.064Z,96733.59
2019-05-25T03:44:31.813Z,96734.42
2019-05-25T03:47:03.784Z,96733.87
2019-05-25T03:49:35.813Z,96737.00
2019-05-25T03:52:08.251Z,96736.41
2019-05-25T03:54:41.125Z,96740.78
2019-05-25T03:57:13.077Z,96744.31
2019-05-25T03:59:44.910Z,96743.38
2019-05-25T04:02:16.643Z,96738.92
2019-05-25T04:04:48.465Z,96737.77
2019-05-25T04:07:20.264Z,96746.56
2019-05-25T04:09:52.285Z,96737.48
2019-05-25T04:12:26.350Z,96746.45
2019-05-25T04:15:00.399Z,96747.66
2019-05-25T04:17:32.615Z,96750.52
2019-05-25T04:20:05.280Z,96753.33
2019-05-25T04:22:37.983Z,96746.42
2019-05-25T04:25:09.918Z,96748.25
2019-05-25T04:27:41.581Z,96755.36
2019-05-25T04:30:31.947Z,96747.58
2019-05-25T04:33:15.645Z,96749.08
2019-05-25T04:35:47.648Z,96754.80
2019-05-25T04:38:23.832Z,96752.73
2019-05-25T04:40:57.906Z,96753.36
2019-05-25T04:43:29.694Z,96744.67
2019-05-25T04:46:02.074Z,96752.94
2019-05-25T04:48:35.922Z,96753.81
2019-05-25T04:51:09.041Z,96752.47
2019-05-25T04:53:41.221Z,96749.25
2019-05-25T04:56:12.963Z,96754.28
2019-05-25T04:58:44.880Z,96757.36
2019-05-25T05:01:22.225Z,96755.23
2019-05-25T05:03:52.455Z,96755.53
2019-05-25T05:06:27.929Z,96756.00
2019-05-25T05:09:00.423Z,96758.95
2019-05-25T05:11:34.130Z,96764.00
2019-05-25T05:14:06.214Z,96764.73
2019-05-25T05:16:37.928Z,96769.51
2019-05-25T05:19:09.826Z,96768.88
2019-05-25T05:21:42.999Z,96774.91
2019-05-25T05:24:14.682Z,96768.83
2019-05-25T05:26:55.744Z,96772.06
2019-05-25T05:29:23.240Z,96769.23
2019-05-25T05:31:59.903Z,96772.41
2019-05-25T05:34:31.657Z,96774.14
2019-05-25T05:37:06.165Z,96777.94
2019-05-25T05:39:38.427Z,96784.79
2019-05-25T05:42:16.091Z,96787.95
2019-05-25T05:44:50.241Z,96788.34
2019-05-25T05:47:23.944Z,96796.08
2019-05-25T05:49:56.874Z,96798.69
2019-05-25T05:52:31.308Z,96789.05
2019-05-25T05:55:05.083Z,96798.05
2019-05-25T05:57:37.846Z,96794.53
2019-05-25T06:00:11.536Z,96792.64
2019-05-25T06:02:43.259Z,96797.05
2019-05-25T06:05:15.305Z,96801.70
2019-05-25T06:07:47.992Z,96804.30
2019-05-25T06:10:20.455Z,96800.06
2019-05-25T06:12:52.370Z,96805.36
2019-05-25T06:15:25.123Z,96814.73
2019-05-25T06:17:56.844Z,96813.70
2019-05-25T06:20:28.680Z,96817.89
2019-05-25T06:23:00.589Z,96827.60
2019-05-25T06:25:34.633Z,96825.89
2019-05-25T06:28:08.568Z,96833.08
2019-05-25T06:30:42.496Z,96833.28
2019-05-25T06:33:16.823Z,96831.52
2019-05-25T06:35:50.138Z,96830.91
2019-05-25T06:38:23.650Z,96834.06
2019-05-25T06:41:00.991Z,96839.26
2019-05-25T06:43:36.219Z,96832.63
2019-05-25T06:46:11.471Z,96837.24
2019-05-25T06:48:47.963Z,96843.67
2019-05-25T06:51:23.202Z,96845.45
2019-05-25T06:53:56.365Z,96857.23
2019-05-25T06:56:32.548Z,96859.70
2019-05-25T06:59:05.097Z,96865.59
2019-05-25T07:01:38.616Z,96862.00
2019-05-25T07:04:14.992Z,96868.40
2019-05-25T07:06:48.373Z,96873.45
2019-05-25T07:09:21.001Z,96869.71
2019-05-25T07:11:56.074Z,96870.38
2019-05-25T07:14:31.655Z,96871.73
2019-05-25T07:17:12.405Z,96873.08
2019-05-25T07:19:48.242Z,96880.10
2019-05-25T07:22:20.565Z,96878.65
2019-05-25T07:24:52.351Z,96889.28
2019-05-25T07:27:27.378Z,96888.14
2019-05-25T07:30:01.536Z,96890.09
2019-05-25T07:32:37.802Z,96890.23
2019-05-25T07:35:10.978Z,96891.55
2019-05-25T07:37:48.929Z,96892.88
2019-05-25T07:40:21.467Z,96904.00
2019-05-25T07:42:55.406Z,96904.78
2019-05-25T07:45:30.291Z,96905.77
2019-05-25T07:48:42.910Z,96906.69
2019-05-25T07:51:17.932Z,96906.13
2019-05-25T07:53:50.109Z,96916.25
2019-05-25T07:56:23.277Z,96919.40
2019-05-25T07:58:57.525Z,96920.27
2019-05-25T08:01:32.139Z,96920.08
2019-05-25T08:04:05.964Z,96928.78
2019-05-25T08:06:48.668Z,96924.81
2019-05-25T08:09:56.241Z,96923.98
2019-05-25T08:12:49.294Z,96926.11
2019-05-25T08:15:26.621Z,96928.47
2019-05-25T08:18:05.495Z,96929.20
2019-05-25T08:20:59.192Z,96925.46
2019-05-25T08:23:55.007Z,96937.31
2019-05-25T08:26:27.195Z,96933.25
2019-05-25T08:28:59.086Z,96946.00
2019-05-25T08:31:30.816Z,96946.72
2019-05-25T08:34:04.650Z,96946.64
2019-05-25T08:36:40.609Z,96958.14
2019-05-25T08:39:25.566Z,96962.22
2019-05-25T08:42:05.453Z,96967.72
2019-05-25T08:44:38.706Z,96963.52
2019-05-25T08:47:10.668Z,96972.36
2019-05-25T08:49:42.830Z,96971.73
2019-05-25T08:52:18.437Z,96973.52
2019-05-25T08:54:53.399Z,96981.07
2019-05-25T08:57:28.192Z,96976.12
2019-05-25T09:00:26.805Z,96976.30
2019-05-25T09:02:58.471Z,96980.88
2019-05-25T09:05:31.345Z,96981.45
2019-05-25T09:08:04.973Z,96985.58
2019-05-25T09:10:59.257Z,96989.95
2019-05-25T09:13:32.168Z,96982.33
2019-05-25T09:16:05.617Z,96991.14
2019-05-25T09:18:37.981Z,96978.31
2019-05-25T09:21:10.815Z,96988.34
2019-05-25T09:23:42.907Z,96992.83
2019-05-25T09:26:15.567Z,96992.47
2019-05-25T09:29:03.191Z,96995.77
2019-05-25T09:34:19.642Z,96989.87
2019-05-25T09:36:52.008Z,96993.06
2019-05-25T09:39:25.443Z,96994.34
2019-05-25T09:41:57.099Z,96988.30
2019-05-25T09:44:29.271Z,96996.09
2019-05-25T09:47:00.993Z,96997.66
2019-05-25T09:49:32.660Z,96993.76
2019-05-25T09:52:08.343Z,97000.35
2019-05-25T09:54:41.954Z,96997.14
2019-05-25T09:57:15.735Z,97003.27
2019-05-25T09:59:53.279Z,97005.63
2019-05-25T10:02:25.067Z,97010.65
2019-05-25T10:04:59.479Z,97002.23
2019-05-25T10:07:32.738Z,97004.42
2019-05-25T10:10:04.716Z,97001.09
2019-05-25T10:12:36.539Z,97012.13
2019-05-25T10:15:13.428Z,97017.94
2019-05-25T10:17:46.707Z,97012.75
2019-05-25T10:20:22.682Z,97012.37
2019-05-25T10:22:55.607Z,97015.28
2019-05-25T10:25:27.899Z,97021.47
2019-05-25T10:28:01.161Z,97020.55
2019-05-25T10:30:33.559Z,97012.86
2019-05-25T10:33:06.241Z,97008.66
2019-05-25T10:35:40.208Z,97017.39
2019-05-25T10:38:15.623Z,97010.69
2019-05-25T10:40:52.213Z,97011.39
2019-05-25T10:43:40.291Z,97013.19
2019-05-25T10:46:17.300Z,97014.00
2019-05-25T10:48:53.445Z,97005.03
2019-05-25T10:51:27.349Z,97016.79
2019-05-25T10:54:07.895Z,97010.60
2019-05-25T10:56:43.279Z,97006.82
2019-05-25T11:02:13.020Z,97003.04
2019-05-25T11:04:55.180Z,97003.05
2019-05-25T11:07:37.534Z,96992.91
2019-05-25T11:10:21.070Z,97004.41
2019-05-25T11:12:56.036Z,97002.23
2019-05-25T11:15:38.332Z,97008.47
2019-05-25T11:18:17.263Z,97004.20
2019-05-25T11:20:50.632Z,97003.08
2019-05-25T11:23:37.147Z,97000.45
2019-05-25T11:26:19.299Z,97007.15
2019-05-25T11:28:57.107Z,97005.04
2019-05-25T11:31:29.221Z,97010.59
2019-05-25T11:34:06.574Z,97009.64
2019-05-25T11:36:42.659Z,97015.38
2019-05-25T11:39:25.406Z,97013.73
2019-05-25T11:42:04.233Z,97015.55
2019-05-25T11:44:36.661Z,97016.21
2019-05-25T11:47:16.180Z,97012.61
2019-05-25T11:49:52.727Z,97018.34
2019-05-25T11:52:34.199Z,97017.38
2019-05-25T11:55:27.948Z,97010.51
2019-05-25T11:58:10.326Z,97015.09
2019-05-25T12:01:03.483Z,97014.76
2019-05-25T12:03:36.536Z,97012.77
2019-05-25T12:06:12.940Z,97010.31
2019-05-25T12:08:46.559Z,97010.96
2019-05-25T12:11:24.436Z,97014.72
2019-05-25T12:14:10.726Z,97009.64
2019-05-25T12:16:49.278Z,97010.92
2019-05-25T12:19:25.188Z,97002.28
2019-05-25T12:22:05.208Z,97004.98
2019-05-25T12:25:08.237Z,97007.55
2019-05-25T12:27:43.158Z,97006.61
2019-05-25T12:30:41.141Z,97007.11
2019-05-25T12:33:28.186Z,97014.73
2019-05-25T12:36:04.290Z,97018.07
2019-05-25T12:38:53.388Z,97021.52
2019-05-25T12:41:29.939Z,97018.66
2019-05-25T12:44:13.059Z,97022.70
2019-05-25T12:46:59.432Z,97026.61
2019-05-25T12:49:49.995Z,97028.91
2019-05-25T12:52:19.576Z,97022.39
2019-05-25T12:54:52.882Z,97015.43
2019-05-25T12:57:29.561Z,97010.07
2019-05-25T13:00:19.118Z,97003.94
2019-05-25T13:03:00.213Z,97000.30
2019-05-25T13:05:42.711Z,97008.67
2019-05-25T13:08:18.597Z,97009.00
2019-05-25T13:10:56.749Z,97018.50
2019-05-25T13:13:35.047Z,97022.92
2019-05-25T13:16:12.569Z,97024.73
2019-05-25T13:18:44.454Z,97013.96
2019-05-25T13:21:31.777Z,97011.14
2019-05-25T13:24:09.911Z,97012.19
2019-05-25T13:26:55.302Z,97016.74
2019-05-25T13:29:51.016Z,97018.30
2019-05-25T13:32:14.432Z,97014.37
2019-05-25T13:34:55.191Z,97026.84
2019-05-25T13:37:35.358Z,97025.44
2019-05-25T13:40:15.787Z,97020.44
2019-05-25T13:43:06.637Z,97025.50
2019-05-25T13:45:46.493Z,97025.20
2019-05-25T13:48:22.354Z,97029.30
2019-05-25T13:51:06.183Z,97021.28
2019-05-25T13:53:51.665Z,97027.87
2019-05-25T13:56:30.321Z,97033.27
2019-05-25T13:59:04.785Z,97034.26
2019-05-25T14:01:39.233Z,97039.92
2019-05-25T14:04:16.108Z,97039.77
2019-05-25T14:07:01.511Z,97036.72
2019-05-25T14:09:40.462Z,97040.14
2019-05-25T14:12:19.105Z,97036.63
2019-05-25T14:17:42.272Z,97038.37
2019-05-25T14:20:26.705Z,97034.23
2019-05-25T14:23:02.455Z,97028.77
2019-05-25T14:25:58.632Z,97027.20
2019-05-25T14:28:33.276Z,97022.88
2019-05-25T14:31:19.402Z,97016.36
2019-05-25T14:33:59.459Z,97024.73
2019-05-25T14:36:34.098Z,97017.56
2019-05-25T14:39:09.295Z,97022.17
2019-05-25T14:41:50.100Z,97019.89
2019-05-25T14:44:27.605Z,97024.52
2019-05-25T14:47:07.419Z,97017.28
2019-05-25T14:49:38.031Z,97023.76
2019-05-25T14:52:27.124Z,97021.47
2019-05-25T14:55:11.396Z,97025.95
2019-05-25T14:57:50.679Z,97015.63
2019-05-25T15:00:30.537Z,97011.26
2019-05-25T15:03:06.545Z,97015.58
2019-05-25T15:05:44.141Z,97014.95
2019-05-25T15:08:38.427Z,97008.60
2019-05-25T15:11:27.263Z,96997.05
2019-05-25T15:14:06.821Z,96996.41
2019-05-25T15:16:45.662Z,96993.81
2019-05-25T15:19:23.940Z,96989.52
2019-05-25T15:21:59.129Z,96990.54
2019-05-25T15:24:40.064Z,96979.72
2019-05-25T15:27:29.360Z,96982.70
2019-05-25T15:30:07.959Z,96997.92
2019-05-25T15:32:45.631Z,96995.02
2019-05-25T15:35:28.919Z,96990.44
2019-05-25T15:38:25.944Z,96994.55
2019-05-25T15:41:04.312Z,96988.03
2019-05-25T15:43:40.153Z,97000.97
2019-05-25T15:46:13.224Z,97008.33
2019-05-25T15:49:00.243Z,97007.86
2019-05-25T15:51:35.794Z,97006.22
2019-05-25T15:54:11.932Z,97006.88
2019-05-25T15:57:08.146Z,97016.88
2019-05-25T16:02:51.551Z,97029.00
2019-05-25T16:05:33.955Z,97027.17
2019-05-25T16:08:12.104Z,97034.22
2019-05-25T16:10:44.829Z,97030.78
2019-05-25T16:13:30.486Z,97046.98
2019-05-25T16:16:06.078Z,97046.19
2019-05-25T16:18:41.618Z,97045.67
2019-05-25T16:21:25.289Z,97045.64
2019-05-25T16:24:17.377Z,97042.36
2019-05-25T16:26:50.291Z,97034.83
2019-05-25T16:29:26.640Z,97035.17
2019-05-25T16:31:59.455Z,97037.61
2019-05-25T16:34:42.988Z,97029.42
2019-05-25T16:37:20.669Z,97031.89
2019-05-25T16:39:53.891Z,97033.20
2019-05-25T16:42:26.164Z,97034.99
2019-05-25T16:45:05.390Z,97034.16
2019-05-25T16:47:44.333Z,97044.15
2019-05-25T16:50:22.010Z,97047.90
2019-05-25T16:53:03.317Z,97050.81
2019-05-25T16:55:54.536Z,97054.09
2019-05-25T16:58:35.562Z,97053.13
2019-05-25T17:01:10.375Z,97062.75
2019-05-25T17:03:49.222Z,97057.34
2019-05-25T17:06:27.191Z,97052.11
2019-05-25T17:09:10.154Z,97049.02
2019-05-25T17:11:45.634Z,97044.45
2019-05-25T17:14:28.111Z,97049.85
2019-05-25T17:17:07.155Z,97050.83
2019-05-25T17:19:44.048Z,97046.91
2019-05-25T17:22:23.285Z,97050.69
2019-05-25T17:25:18.515Z,97054.61
2019-05-25T17:27:54.230Z,97063.72
2019-05-25T17:30:45.777Z,97063.52
2019-05-25T17:33:45.235Z,97057.81
2019-05-25T17:36:19.748Z,97050.73
2019-05-25T17:38:56.433Z,97053.02
2019-05-25T17:41:32.459Z,97057.52
2019-05-25T17:44:04.151Z,97056.91
2019-05-25T17:47:00.690Z,97061.48
2019-05-25T17:49:36.522Z,97062.80
2019-05-25T17:52:13.642Z,97061.13
2019-05-25T17:54:52.680Z,97060.59
2019-05-25T17:57:30.096Z,97060.13
2019-05-25T18:00:03.811Z,97060.44
2019-05-25T18:02:42.273Z,97063.05
2019-05-25T18:05:21.136Z,97062.95
2019-05-25T18:08:00.135Z,97060.01
2019-05-25T18:10:52.956Z,97064.59
2019-05-25T18:13:28.701Z,97064.59
2019-05-25T18:16:03.063Z,97068.83
2019-05-25T18:18:47.708Z,97069.66
2019-05-25T18:21:24.742Z,97071.88
2019-05-25T18:24:25.440Z,97072.70
2019-05-25T18:26:58.056Z,97070.42
2019-05-25T18:29:42.092Z,97071.36
2019-05-25T18:32:22.199Z,97068.95
2019-05-25T18:34:57.485Z,97072.30
2019-05-25T18:37:31.929Z,97074.50
2019-05-25T18:40:06.870Z,97077.09
2019-05-25T18:42:42.905Z,97088.34
2019-05-25T18:45:19.140Z,97088.71
2019-05-25T18:47:54.398Z,97084.71
2019-05-25T18:50:28.802Z,97087.98
2019-05-25T18:53:05.634Z,97086.55
2019-05-25T18:55:42.694Z,97096.03
2019-05-25T18:58:20.049Z,97092.66
2019-05-25T19:01:17.899Z,97099.13
2019-05-25T19:03:48.573Z,97095.82
2019-05-25T19:06:29.574Z,97095.24
2019-05-25T19:09:04.201Z,97104.22
2019-05-25T19:11:41.078Z,97109.45
2019-05-25T19:14:19.822Z,97110.56
2019-05-25T19:16:54.096Z,97119.89
2019-05-25T19:19:31.753Z,97111.70
2019-05-25T19:22:09.651Z,97113.02
2019-05-25T19:24:45.949Z,97121.01
2019-05-25T19:27:21.963Z,97122.16
2019-05-25T19:30:03.294Z,97122.34
2019-05-25T19:32:41.557Z,97125.11
2019-05-25T19:35:20.331Z,97119.22
2019-05-25T19:38:06.322Z,97126.42
2019-05-25T19:40:43.163Z,97125.41
2019-05-25T19:43:24.634Z,97128.84
2019-05-25T19:46:02.740Z,97131.62
2019-05-25T19:48:45.537Z,97131.78
2019-05-25T19:51:40.675Z,97134.87
2019-05-25T19:54:22.792Z,97133.40
2019-05-25T19:57:02.649Z,97134.20
2019-05-25T19:59:44.953Z,97139.71
2019-05-25T20:02:32.762Z,97137.36
2019-05-25T20:05:24.201Z,97139.62
2019-05-25T20:07:58.395Z,97145.28
2019-05-25T20:10:35.057Z,97151.53
2019-05-25T20:13:24.739Z,97153.28
2019-05-25T20:16:24.742Z,97156.65
2019-05-25T20:19:00.462Z,97161.55
2019-05-25T20:21:35.188Z,97155.63
2019-05-25T20:24:07.889Z,97156.73
2019-05-25T20:26:46.511Z,97157.45
2019-05-25T20:29:24.626Z,97160.05
2019-05-25T20:31:59.325Z,97161.95
2019-05-25T20:34:40.768Z,97159.67
2019-05-25T20:37:17.036Z,97162.28
2019-05-25T20:39:55.357Z,97164.25
2019-05-25T20:42:36.799Z,97163.27
2019-05-25T20:45:18.869Z,97157.66
2019-05-25T20:48:05.056Z,97153.77
2019-05-25T20:50:41.352Z,97158.23
2019-05-25T20:53:15.816Z,97155.88
2019-05-25T20:56:08.498Z,97156.55
2019-05-25T20:58:41.581Z,97161.25
2019-05-25T21:01:24.581Z,97154.41
2019-05-25T21:04:06.261Z,97155.08
2019-05-25T21:06:39.909Z,97162.20
2019-05-25T21:09:19.438Z,97161.22
2019-05-25T21:12:00.196Z,97162.17
2019-05-25T21:14:48.134Z,97164.30
2019-05-25T21:17:26.366Z,97165.41
2019-05-25T21:20:04.131Z,97158.84
2019-05-25T21:22:51.797Z,97165.41
2019-05-25T21:25:39.152Z,97158.73
2019-05-25T21:28:15.242Z,97159.17
2019-05-25T21:30:53.720Z,97159.97
2019-05-25T21:36:28.709Z,97157.95
2019-05-25T21:39:09.639Z,97156.37
2019-05-25T21:41:49.203Z,97160.60
2019-05-25T21:47:45.514Z,97153.76
2019-05-25T21:50:22.930Z,97160.28
2019-05-25T21:53:06.037Z,97160.28
2019-05-25T21:55:39.974Z,97158.50
2019-05-25T21:58:24.132Z,97159.09
2019-05-25T22:01:08.071Z,97162.66
2019-05-25T22:03:51.773Z,97164.74
2019-05-25T22:06:42.262Z,97160.67
2019-05-25T22:09:32.980Z,97164.47
2019-05-25T22:12:16.720Z,97157.95
2019-05-25T22:15:06.348Z,97163.05
2019-05-25T22:17:45.390Z,97165.94
2019-05-25T22:20:45.908Z,97159.92
2019-05-25T22:23:23.246Z,97154.39
2019-05-25T22:26:04.460Z,97159.49
2019-05-25T22:28:45.108Z,97159.02
2019-05-25T22:31:22.872Z,97155.58
2019-05-25T22:33:59.505Z,97154.75
2019-05-25T22:36:40.224Z,97149.41
2019-05-25T22:39:28.473Z,97151.34
2019-05-25T22:42:38.753Z,97146.72
2019-05-25T22:45:15.598Z,97151.73
2019-05-25T22:47:56.965Z,97158.54
2019-05-25T22:51:13.080Z,97152.57
2019-05-25T22:53:55.057Z,97162.66
2019-05-25T22:56:34.157Z,97161.78
2019-05-25T22:59:26.308Z,97155.73
2019-05-25T23:02:04.932Z,97157.63
2019-05-25T23:04:52.734Z,97160.23
2019-05-25T23:10:37.176Z,97158.45
2019-05-25T23:13:27.211Z,97162.60
2019-05-25T23:16:05.236Z,97154.88
2019-05-25T23:19:06.543Z,97156.47
2019-05-25T23:22:00.117Z,97153.13
2019-05-25T23:24:47.747Z,97157.15
2019-05-25T23:34:29.715Z,97151.96
2019-05-25T23:41:11.199Z,97151.48
2019-05-25T23:44:50.685Z,97144.97
2019-05-25T23:48:00.216Z,97140.28
2019-05-25T23:50:33.439Z,97149.83
